sensor_id;sensor_type;location;lat;lon;timestamp;pressure;altitude;pressure_sealevel;temperature;humidity
58018;BME280;43810;50.860;19.226;2023-08-24T00:00:54;98866.03;;;14.99;86.34
58018;BME280;43810;50.860;19.226;2023-08-24T00:03:31;98865.34;;;15.02;86.24
58018;BME280;43810;50.860;19.226;2023-08-24T00:05:58;98858.00;;;14.99;86.26
58018;BME280;43810;50.860;19.226;2023-08-24T00:08:24;98856.03;;;14.96;86.08
58018;BME280;43810;50.860;19.226;2023-08-24T00:10:50;98858.13;;;14.87;86.57
58018;BME280;43810;50.860;19.226;2023-08-24T00:13:16;98849.38;;;14.71;87.51
58018;BME280;43810;50.860;19.226;2023-08-24T00:15:42;98855.63;;;14.59;88.90
58018;BME280;43810;50.860;19.226;2023-08-24T00:18:07;98856.56;;;14.51;89.73
58018;BME280;43810;50.860;19.226;2023-08-24T00:20:34;98857.19;;;14.45;90.52
58018;BME280;43810;50.860;19.226;2023-08-24T00:23:00;98862.19;;;14.30;90.31
58018;BME280;43810;50.860;19.226;2023-08-24T00:25:26;98865.81;;;14.22;91.25
58018;BME280;43810;50.860;19.226;2023-08-24T00:27:55;98856.91;;;14.18;92.18
58018;BME280;43810;50.860;19.226;2023-08-24T00:30:21;98854.19;;;14.15;92.76
58018;BME280;43810;50.860;19.226;2023-08-24T00:32:47;98856.97;;;14.06;92.68
58018;BME280;43810;50.860;19.226;2023-08-24T00:35:13;98857.69;;;14.03;93.86
58018;BME280;43810;50.860;19.226;2023-08-24T00:37:39;98863.50;;;13.93;93.24
58018;BME280;43810;50.860;19.226;2023-08-24T00:40:06;98855.75;;;13.88;93.70
58018;BME280;43810;50.860;19.226;2023-08-24T00:42:39;98867.00;;;13.81;94.23
58018;BME280;43810;50.860;19.226;2023-08-24T00:45:07;98860.72;;;13.74;94.17
58018;BME280;43810;50.860;19.226;2023-08-24T00:47:36;98861.84;;;13.73;94.83
58018;BME280;43810;50.860;19.226;2023-08-24T00:50:02;98864.84;;;13.71;95.22
58018;BME280;43810;50.860;19.226;2023-08-24T00:52:30;98857.88;;;13.82;95.48
58018;BME280;43810;50.860;19.226;2023-08-24T00:54:58;98858.16;;;13.93;95.30
58018;BME280;43810;50.860;19.226;2023-08-24T00:57:28;98860.69;;;14.01;94.87
58018;BME280;43810;50.860;19.226;2023-08-24T00:59:55;98861.88;;;14.04;94.34
58018;BME280;43810;50.860;19.226;2023-08-24T01:02:21;98858.09;;;14.05;94.01
58018;BME280;43810;50.860;19.226;2023-08-24T01:04:47;98865.50;;;14.12;94.30
58018;BME280;43810;50.860;19.226;2023-08-24T01:07:14;98861.16;;;14.19;94.33
58018;BME280;43810;50.860;19.226;2023-08-24T01:09:41;98865.47;;;14.24;94.22
58018;BME280;43810;50.860;19.226;2023-08-24T01:14:45;98876.59;;;14.26;94.24
58018;BME280;43810;50.860;19.226;2023-08-24T01:17:18;98859.78;;;14.25;94.39
58018;BME280;43810;50.860;19.226;2023-08-24T01:19:47;98857.09;;;14.25;94.54
58018;BME280;43810;50.860;19.226;2023-08-24T01:22:43;98851.31;;;14.23;94.76
58018;BME280;43810;50.860;19.226;2023-08-24T01:25:12;98857.78;;;14.22;94.55
58018;BME280;43810;50.860;19.226;2023-08-24T01:27:42;98853.13;;;14.19;94.70
58018;BME280;43810;50.860;19.226;2023-08-24T01:30:09;98855.03;;;14.19;94.73
58018;BME280;43810;50.860;19.226;2023-08-24T01:32:35;98851.13;;;14.16;95.13
58018;BME280;43810;50.860;19.226;2023-08-24T01:35:07;98851.56;;;14.18;95.01
58018;BME280;43810;50.860;19.226;2023-08-24T01:37:34;98850.03;;;14.17;94.98
58018;BME280;43810;50.860;19.226;2023-08-24T01:40:04;98856.13;;;14.18;94.71
58018;BME280;43810;50.860;19.226;2023-08-24T01:42:35;98851.56;;;14.18;94.74
58018;BME280;43810;50.860;19.226;2023-08-24T01:45:04;98846.56;;;14.17;94.73
58018;BME280;43810;50.860;19.226;2023-08-24T01:47:33;98851.81;;;14.13;94.61
58018;BME280;43810;50.860;19.226;2023-08-24T01:50:01;98853.72;;;14.13;94.65
58018;BME280;43810;50.860;19.226;2023-08-24T01:52:27;98856.84;;;14.15;94.69
58018;BME280;43810;50.860;19.226;2023-08-24T01:54:53;98856.06;;;14.14;94.42
58018;BME280;43810;50.860;19.226;2023-08-24T01:57:19;98847.94;;;14.11;93.93
58018;BME280;43810;50.860;19.226;2023-08-24T01:59:45;98847.84;;;14.07;93.94
58018;BME280;43810;50.860;19.226;2023-08-24T02:02:10;98851.56;;;14.02;94.44
58018;BME280;43810;50.860;19.226;2023-08-24T02:04:36;98841.13;;;13.97;94.56
58018;BME280;43810;50.860;19.226;2023-08-24T02:07:02;98846.00;;;13.95;95.05
58018;BME280;43810;50.860;19.226;2023-08-24T02:09:28;98831.88;;;13.95;94.59
58018;BME280;43810;50.860;19.226;2023-08-24T02:11:53;98840.22;;;13.93;95.08
58018;BME280;43810;50.860;19.226;2023-08-24T02:14:19;98839.56;;;13.96;95.19
58018;BME280;43810;50.860;19.226;2023-08-24T02:16:45;98833.97;;;14.01;95.47
58018;BME280;43810;50.860;19.226;2023-08-24T02:19:11;98833.63;;;14.03;95.86
58018;BME280;43810;50.860;19.226;2023-08-24T02:21:37;98844.66;;;14.01;95.81
58018;BME280;43810;50.860;19.226;2023-08-24T02:24:04;98842.66;;;13.98;95.47
58018;BME280;43810;50.860;19.226;2023-08-24T02:26:30;98836.00;;;13.92;95.15
58018;BME280;43810;50.860;19.226;2023-08-24T02:28:57;98837.72;;;13.85;94.96
58018;BME280;43810;50.860;19.226;2023-08-24T02:31:23;98836.78;;;13.77;95.52
58018;BME280;43810;50.860;19.226;2023-08-24T02:33:49;98835.47;;;13.71;95.94
58018;BME280;43810;50.860;19.226;2023-08-24T02:36:14;98839.25;;;13.70;96.21
58018;BME280;43810;50.860;19.226;2023-08-24T02:38:41;98833.91;;;13.70;96.51
58018;BME280;43810;50.860;19.226;2023-08-24T02:41:07;98836.50;;;13.66;96.35
58018;BME280;43810;50.860;19.226;2023-08-24T02:43:33;98834.84;;;13.62;96.44
58018;BME280;43810;50.860;19.226;2023-08-24T02:46:03;98823.06;;;13.63;96.92
58018;BME280;43810;50.860;19.226;2023-08-24T02:48:30;98836.06;;;13.64;96.96
58018;BME280;43810;50.860;19.226;2023-08-24T02:51:00;98833.84;;;13.66;97.02
58018;BME280;43810;50.860;19.226;2023-08-24T02:53:27;98825.84;;;13.66;97.23
58018;BME280;43810;50.860;19.226;2023-08-24T02:55:53;98826.28;;;13.68;97.25
58018;BME280;43810;50.860;19.226;2023-08-24T02:58:19;98830.75;;;13.80;97.26
58018;BME280;43810;50.860;19.226;2023-08-24T03:00:45;98828.59;;;13.86;97.04
58018;BME280;43810;50.860;19.226;2023-08-24T03:03:14;98828.53;;;13.98;96.86
58018;BME280;43810;50.860;19.226;2023-08-24T03:05:40;98826.56;;;14.11;96.31
58018;BME280;43810;50.860;19.226;2023-08-24T03:08:06;98820.72;;;14.21;96.05
58018;BME280;43810;50.860;19.226;2023-08-24T03:10:35;98820.97;;;14.31;95.33
58018;BME280;43810;50.860;19.226;2023-08-24T03:13:01;98830.97;;;14.34;95.14
58018;BME280;43810;50.860;19.226;2023-08-24T03:15:27;98824.94;;;14.37;94.75
58018;BME280;43810;50.860;19.226;2023-08-24T03:17:53;98835.63;;;14.37;94.62
58018;BME280;43810;50.860;19.226;2023-08-24T03:20:19;98840.88;;;14.34;94.96
58018;BME280;43810;50.860;19.226;2023-08-24T03:22:45;98838.47;;;14.29;94.94
58018;BME280;43810;50.860;19.226;2023-08-24T03:25:10;98824.66;;;14.27;94.92
58018;BME280;43810;50.860;19.226;2023-08-24T03:27:38;98829.94;;;14.23;95.11
58018;BME280;43810;50.860;19.226;2023-08-24T03:30:04;98834.09;;;14.21;95.01
58018;BME280;43810;50.860;19.226;2023-08-24T03:32:30;98833.59;;;14.15;95.01
58018;BME280;43810;50.860;19.226;2023-08-24T03:34:59;98835.25;;;14.07;95.20
58018;BME280;43810;50.860;19.226;2023-08-24T03:37:25;98842.75;;;14.02;95.34
58018;BME280;43810;50.860;19.226;2023-08-24T03:39:51;98841.88;;;13.98;95.78
58018;BME280;43810;50.860;19.226;2023-08-24T03:42:17;98837.41;;;14.02;95.95
58018;BME280;43810;50.860;19.226;2023-08-24T03:44:42;98838.97;;;14.03;96.23
58018;BME280;43810;50.860;19.226;2023-08-24T03:47:09;98844.38;;;14.06;96.17
58018;BME280;43810;50.860;19.226;2023-08-24T03:49:34;98838.94;;;14.15;95.94
58018;BME280;43810;50.860;19.226;2023-08-24T03:52:00;98848.13;;;14.18;95.75
58018;BME280;43810;50.860;19.226;2023-08-24T03:54:26;98850.34;;;14.16;95.41
58018;BME280;43810;50.860;19.226;2023-08-24T03:56:52;98851.56;;;14.18;95.40
58018;BME280;43810;50.860;19.226;2023-08-24T03:59:18;98854.25;;;14.18;95.57
58018;BME280;43810;50.860;19.226;2023-08-24T04:01:44;98852.34;;;14.19;95.58
58018;BME280;43810;50.860;19.226;2023-08-24T04:04:09;98859.06;;;14.28;95.37
58018;BME280;43810;50.860;19.226;2023-08-24T04:06:35;98847.84;;;14.38;94.78
58018;BME280;43810;50.860;19.226;2023-08-24T04:09:01;98857.88;;;14.41;94.41
58018;BME280;43810;50.860;19.226;2023-08-24T04:11:27;98855.09;;;14.54;94.08
58018;BME280;43810;50.860;19.226;2023-08-24T04:13:53;98863.69;;;14.63;93.64
58018;BME280;43810;50.860;19.226;2023-08-24T04:16:19;98862.31;;;14.69;93.17
58018;BME280;43810;50.860;19.226;2023-08-24T04:18:45;98861.22;;;14.70;92.93
58018;BME280;43810;50.860;19.226;2023-08-24T04:21:10;98850.06;;;14.68;92.89
58018;BME280;43810;50.860;19.226;2023-08-24T04:23:36;98851.53;;;14.81;92.16
58018;BME280;43810;50.860;19.226;2023-08-24T04:26:02;98852.44;;;14.89;91.52
58018;BME280;43810;50.860;19.226;2023-08-24T04:28:30;98858.09;;;15.03;91.21
58018;BME280;43810;50.860;19.226;2023-08-24T04:30:56;98842.41;;;15.21;90.73
58018;BME280;43810;50.860;19.226;2023-08-24T04:33:22;98852.03;;;15.41;89.94
58018;BME280;43810;50.860;19.226;2023-08-24T04:35:49;98847.13;;;15.66;89.06
58018;BME280;43810;50.860;19.226;2023-08-24T04:38:15;98859.41;;;15.90;88.27
58018;BME280;43810;50.860;19.226;2023-08-24T04:40:55;98856.06;;;16.15;87.46
58018;BME280;43810;50.860;19.226;2023-08-24T04:43:23;98843.41;;;16.39;85.68
58018;BME280;43810;50.860;19.226;2023-08-24T04:45:50;98847.63;;;16.63;84.15
58018;BME280;43810;50.860;19.226;2023-08-24T04:48:18;98847.56;;;16.85;83.19
58018;BME280;43810;50.860;19.226;2023-08-24T04:50:45;98849.34;;;17.04;82.43
58018;BME280;43810;50.860;19.226;2023-08-24T04:53:16;98854.91;;;17.18;82.55
58018;BME280;43810;50.860;19.226;2023-08-24T04:55:43;98854.25;;;17.28;80.90
58018;BME280;43810;50.860;19.226;2023-08-24T04:58:10;98846.41;;;17.46;80.68
58018;BME280;43810;50.860;19.226;2023-08-24T05:00:37;98844.16;;;17.52;80.16
58018;BME280;43810;50.860;19.226;2023-08-24T05:03:07;98845.41;;;17.61;79.46
58018;BME280;43810;50.860;19.226;2023-08-24T05:05:34;98852.88;;;17.75;79.35
58018;BME280;43810;50.860;19.226;2023-08-24T05:08:02;98839.19;;;17.87;78.56
58018;BME280;43810;50.860;19.226;2023-08-24T05:10:32;98844.69;;;18.01;78.15
58018;BME280;43810;50.860;19.226;2023-08-24T05:12:58;98857.91;;;18.17;79.12
58018;BME280;43810;50.860;19.226;2023-08-24T05:15:24;98859.19;;;18.34;77.15
58018;BME280;43810;50.860;19.226;2023-08-24T05:17:49;98854.31;;;18.50;75.80
58018;BME280;43810;50.860;19.226;2023-08-24T05:20:19;98855.88;;;18.55;75.33
58018;BME280;43810;50.860;19.226;2023-08-24T05:22:45;98857.47;;;18.59;75.29
58018;BME280;43810;50.860;19.226;2023-08-24T05:25:11;98859.78;;;18.61;75.19
58018;BME280;43810;50.860;19.226;2023-08-24T05:27:37;98855.59;;;18.67;74.24
58018;BME280;43810;50.860;19.226;2023-08-24T05:30:03;98857.22;;;18.79;73.15
58018;BME280;43810;50.860;19.226;2023-08-24T05:32:31;98857.28;;;18.86;72.84
58018;BME280;43810;50.860;19.226;2023-08-24T05:34:57;98849.63;;;18.95;73.00
58018;BME280;43810;50.860;19.226;2023-08-24T05:37:23;98861.59;;;19.04;71.97
58018;BME280;43810;50.860;19.226;2023-08-24T05:39:49;98867.78;;;19.12;72.17
58018;BME280;43810;50.860;19.226;2023-08-24T05:42:15;98864.00;;;19.20;72.08
58018;BME280;43810;50.860;19.226;2023-08-24T05:44:42;98864.03;;;19.31;71.47
58018;BME280;43810;50.860;19.226;2023-08-24T05:47:07;98862.19;;;19.45;72.95
58018;BME280;43810;50.860;19.226;2023-08-24T05:49:33;98863.44;;;19.73;71.18
58018;BME280;43810;50.860;19.226;2023-08-24T05:51:59;98870.81;;;19.90;70.37
58018;BME280;43810;50.860;19.226;2023-08-24T05:54:25;98864.66;;;20.07;70.13
58018;BME280;43810;50.860;19.226;2023-08-24T05:56:50;98861.97;;;20.29;69.94
58018;BME280;43810;50.860;19.226;2023-08-24T05:59:16;98861.59;;;20.51;69.33
58018;BME280;43810;50.860;19.226;2023-08-24T06:01:42;98865.84;;;20.67;68.45
58018;BME280;43810;50.860;19.226;2023-08-24T06:04:09;98869.69;;;20.83;66.92
58018;BME280;43810;50.860;19.226;2023-08-24T06:06:35;98864.59;;;20.96;66.04
58018;BME280;43810;50.860;19.226;2023-08-24T06:09:01;98861.91;;;21.07;66.22
58018;BME280;43810;50.860;19.226;2023-08-24T06:11:30;98862.22;;;21.19;66.73
58018;BME280;43810;50.860;19.226;2023-08-24T06:13:56;98863.72;;;21.31;65.11
58018;BME280;43810;50.860;19.226;2023-08-24T06:16:21;98861.78;;;21.42;64.29
58018;BME280;43810;50.860;19.226;2023-08-24T06:18:47;98869.81;;;21.56;64.65
58018;BME280;43810;50.860;19.226;2023-08-24T06:21:15;98872.84;;;21.76;64.76
58018;BME280;43810;50.860;19.226;2023-08-24T06:23:41;98865.34;;;21.98;62.35
58018;BME280;43810;50.860;19.226;2023-08-24T06:26:07;98866.78;;;22.13;63.23
58018;BME280;43810;50.860;19.226;2023-08-24T06:28:33;98862.50;;;22.16;61.75
58018;BME280;43810;50.860;19.226;2023-08-24T06:31:00;98863.72;;;22.11;62.17
58018;BME280;43810;50.860;19.226;2023-08-24T06:33:33;98868.66;;;22.23;61.69
58018;BME280;43810;50.860;19.226;2023-08-24T06:35:59;98876.25;;;22.43;62.30
58018;BME280;43810;50.860;19.226;2023-08-24T06:38:25;98874.91;;;22.61;61.65
58018;BME280;43810;50.860;19.226;2023-08-24T06:40:51;98871.34;;;22.72;59.31
58018;BME280;43810;50.860;19.226;2023-08-24T06:43:17;98875.03;;;22.92;59.67
58018;BME280;43810;50.860;19.226;2023-08-24T06:45:46;98872.16;;;23.10;60.35
58018;BME280;43810;50.860;19.226;2023-08-24T06:48:12;98867.25;;;23.31;58.32
58018;BME280;43810;50.860;19.226;2023-08-24T06:50:38;98872.88;;;23.48;57.84
58018;BME280;43810;50.860;19.226;2023-08-24T06:53:04;98860.63;;;23.63;56.51
58018;BME280;43810;50.860;19.226;2023-08-24T06:55:30;98864.31;;;23.80;56.68
58018;BME280;43810;50.860;19.226;2023-08-24T06:57:56;98861.06;;;23.92;56.24
58018;BME280;43810;50.860;19.226;2023-08-24T07:00:22;98866.78;;;23.97;55.72
58018;BME280;43810;50.860;19.226;2023-08-24T07:02:51;98864.25;;;24.10;55.29
58018;BME280;43810;50.860;19.226;2023-08-24T07:05:17;98862.41;;;24.30;56.26
58018;BME280;43810;50.860;19.226;2023-08-24T07:07:52;98866.66;;;24.55;54.57
58018;BME280;43810;50.860;19.226;2023-08-24T07:10:20;98862.13;;;24.71;53.94
58018;BME280;43810;50.860;19.226;2023-08-24T07:12:47;98863.31;;;24.90;55.75
58018;BME280;43810;50.860;19.226;2023-08-24T07:15:15;98863.50;;;25.23;52.49
58018;BME280;43810;50.860;19.226;2023-08-24T07:17:41;98865.56;;;25.35;51.34
58018;BME280;43810;50.860;19.226;2023-08-24T07:20:12;98857.53;;;25.47;50.54
58018;BME280;43810;50.860;19.226;2023-08-24T07:22:42;98848.91;;;25.52;50.94
58018;BME280;43810;50.860;19.226;2023-08-24T07:25:08;98856.69;;;25.86;49.27
58018;BME280;43810;50.860;19.226;2023-08-24T07:27:35;98867.41;;;26.13;48.24
58018;BME280;43810;50.860;19.226;2023-08-24T07:30:04;98867.56;;;26.22;48.42
58018;BME280;43810;50.860;19.226;2023-08-24T07:32:31;98865.75;;;26.32;47.42
58018;BME280;43810;50.860;19.226;2023-08-24T07:34:57;98862.50;;;26.53;46.38
58018;BME280;43810;50.860;19.226;2023-08-24T07:37:28;98861.47;;;26.80;46.25
58018;BME280;43810;50.860;19.226;2023-08-24T07:39:56;98861.94;;;26.91;46.10
58018;BME280;43810;50.860;19.226;2023-08-24T07:42:24;98858.94;;;27.02;47.47
58018;BME280;43810;50.860;19.226;2023-08-24T07:44:50;98846.56;;;26.84;45.91
58018;BME280;43810;50.860;19.226;2023-08-24T07:47:16;98860.06;;;26.88;47.14
58018;BME280;43810;50.860;19.226;2023-08-24T07:49:42;98855.88;;;26.71;46.40
58018;BME280;43810;50.860;19.226;2023-08-24T07:52:13;98846.94;;;26.70;49.90
58018;BME280;43810;50.860;19.226;2023-08-24T07:54:39;98855.34;;;26.76;50.23
58018;BME280;43810;50.860;19.226;2023-08-24T07:57:05;98854.09;;;26.93;47.86
58018;BME280;43810;50.860;19.226;2023-08-24T07:59:32;98850.53;;;27.09;46.75
58018;BME280;43810;50.860;19.226;2023-08-24T08:01:58;98848.81;;;27.15;46.90
58018;BME280;43810;50.860;19.226;2023-08-24T08:04:23;98854.81;;;27.39;45.84
58018;BME280;43810;50.860;19.226;2023-08-24T08:06:49;98855.13;;;27.41;42.83
58018;BME280;43810;50.860;19.226;2023-08-24T08:09:15;98852.25;;;27.31;45.25
58018;BME280;43810;50.860;19.226;2023-08-24T08:11:42;98853.06;;;27.03;45.94
58018;BME280;43810;50.860;19.226;2023-08-24T08:14:09;98856.13;;;27.47;44.64
58018;BME280;43810;50.860;19.226;2023-08-24T08:16:35;98847.00;;;27.24;45.44
58018;BME280;43810;50.860;19.226;2023-08-24T08:19:02;98851.41;;;27.35;43.51
58018;BME280;43810;50.860;19.226;2023-08-24T08:21:28;98845.06;;;26.96;42.80
58018;BME280;43810;50.860;19.226;2023-08-24T08:23:55;98855.88;;;27.28;41.54
58018;BME280;43810;50.860;19.226;2023-08-24T08:26:21;98851.09;;;27.58;40.46
58018;BME280;43810;50.860;19.226;2023-08-24T08:28:48;98853.41;;;27.59;40.64
58018;BME280;43810;50.860;19.226;2023-08-24T08:31:14;98851.34;;;27.76;40.70
58018;BME280;43810;50.860;19.226;2023-08-24T08:33:40;98856.03;;;27.63;38.77
58018;BME280;43810;50.860;19.226;2023-08-24T08:36:08;98849.38;;;27.64;39.00
58018;BME280;43810;50.860;19.226;2023-08-24T08:38:34;98850.59;;;27.63;41.34
58018;BME280;43810;50.860;19.226;2023-08-24T08:41:03;98850.25;;;27.74;39.57
58018;BME280;43810;50.860;19.226;2023-08-24T08:43:30;98852.88;;;28.02;40.76
58018;BME280;43810;50.860;19.226;2023-08-24T08:45:56;98849.66;;;28.42;39.50
58018;BME280;43810;50.860;19.226;2023-08-24T08:48:24;98852.34;;;28.55;38.74
58018;BME280;43810;50.860;19.226;2023-08-24T08:50:51;98854.50;;;28.25;40.58
58018;BME280;43810;50.860;19.226;2023-08-24T08:53:22;98844.22;;;28.29;38.86
58018;BME280;43810;50.860;19.226;2023-08-24T08:55:51;98846.34;;;28.47;37.47
58018;BME280;43810;50.860;19.226;2023-08-24T08:58:18;98851.00;;;28.25;38.52
58018;BME280;43810;50.860;19.226;2023-08-24T09:00:45;98849.28;;;28.06;39.77
58018;BME280;43810;50.860;19.226;2023-08-24T09:03:12;98853.56;;;27.94;39.31
58018;BME280;43810;50.860;19.226;2023-08-24T09:05:41;98849.59;;;28.20;36.93
58018;BME280;43810;50.860;19.226;2023-08-24T09:08:08;98853.63;;;28.28;37.08
58018;BME280;43810;50.860;19.226;2023-08-24T09:10:34;98846.97;;;28.17;39.01
58018;BME280;43810;50.860;19.226;2023-08-24T09:13:00;98850.00;;;28.31;41.37
58018;BME280;43810;50.860;19.226;2023-08-24T09:15:27;98860.66;;;28.64;36.37
58018;BME280;43810;50.860;19.226;2023-08-24T09:17:54;98853.47;;;28.57;38.41
58018;BME280;43810;50.860;19.226;2023-08-24T09:20:22;98845.41;;;28.41;37.94
58018;BME280;43810;50.860;19.226;2023-08-24T09:22:47;98850.38;;;28.08;38.10
58018;BME280;43810;50.860;19.226;2023-08-24T09:25:13;98837.69;;;28.61;37.48
58018;BME280;43810;50.860;19.226;2023-08-24T09:27:39;98837.59;;;28.52;39.08
58018;BME280;43810;50.860;19.226;2023-08-24T09:30:05;98830.25;;;28.62;39.67
58018;BME280;43810;50.860;19.226;2023-08-24T09:32:31;98820.94;;;28.94;37.91
58018;BME280;43810;50.860;19.226;2023-08-24T09:35:18;98838.47;;;29.05;36.23
58018;BME280;43810;50.860;19.226;2023-08-24T09:37:49;98829.28;;;28.68;40.61
58018;BME280;43810;50.860;19.226;2023-08-24T09:40:15;98830.59;;;28.64;41.13
58018;BME280;43810;50.860;19.226;2023-08-24T09:42:42;98829.19;;;28.81;39.07
58018;BME280;43810;50.860;19.226;2023-08-24T09:45:11;98838.03;;;28.63;40.29
58018;BME280;43810;50.860;19.226;2023-08-24T09:47:38;98836.19;;;28.82;40.37
58018;BME280;43810;50.860;19.226;2023-08-24T09:50:04;98829.66;;;29.23;38.01
58018;BME280;43810;50.860;19.226;2023-08-24T09:52:32;98821.44;;;29.54;37.88
58018;BME280;43810;50.860;19.226;2023-08-24T09:55:03;98822.69;;;29.62;36.73
58018;BME280;43810;50.860;19.226;2023-08-24T09:57:33;98831.28;;;29.42;37.09
58018;BME280;43810;50.860;19.226;2023-08-24T10:00:02;98816.16;;;29.29;37.80
58018;BME280;43810;50.860;19.226;2023-08-24T10:02:36;98815.91;;;28.70;40.58
58018;BME280;43810;50.860;19.226;2023-08-24T10:05:03;98815.00;;;28.39;40.50
58018;BME280;43810;50.860;19.226;2023-08-24T10:07:30;98810.38;;;28.49;39.66
58018;BME280;43810;50.860;19.226;2023-08-24T10:10:03;98815.66;;;27.96;39.48
58018;BME280;43810;50.860;19.226;2023-08-24T10:12:32;98807.28;;;27.23;40.99
58018;BME280;43810;50.860;19.226;2023-08-24T10:15:02;98811.59;;;27.37;44.21
58018;BME280;43810;50.860;19.226;2023-08-24T10:17:32;98800.03;;;27.71;43.38
58018;BME280;43810;50.860;19.226;2023-08-24T10:19:58;98810.16;;;27.83;40.79
58018;BME280;43810;50.860;19.226;2023-08-24T10:22:34;98811.25;;;27.86;40.99
58018;BME280;43810;50.860;19.226;2023-08-24T10:25:00;98809.28;;;28.12;40.98
58018;BME280;43810;50.860;19.226;2023-08-24T10:27:29;98802.19;;;28.49;39.60
58018;BME280;43810;50.860;19.226;2023-08-24T10:29:58;98808.56;;;28.80;39.98
58018;BME280;43810;50.860;19.226;2023-08-24T10:32:27;98798.44;;;29.42;38.78
58018;BME280;43810;50.860;19.226;2023-08-24T10:34:55;98793.75;;;29.52;37.64
58018;BME280;43810;50.860;19.226;2023-08-24T10:37:27;98799.69;;;29.81;40.15
58018;BME280;43810;50.860;19.226;2023-08-24T10:39:53;98806.34;;;30.30;37.20
58018;BME280;43810;50.860;19.226;2023-08-24T10:42:19;98801.16;;;30.68;36.01
58018;BME280;43810;50.860;19.226;2023-08-24T10:44:47;98815.19;;;30.61;36.40
58018;BME280;43810;50.860;19.226;2023-08-24T10:47:23;98812.84;;;29.74;36.18
58018;BME280;43810;50.860;19.226;2023-08-24T10:54:51;98803.44;;;28.69;37.73
58018;BME280;43810;50.860;19.226;2023-08-24T10:59:45;98792.88;;;28.12;42.00
58018;BME280;43810;50.860;19.226;2023-08-24T11:02:19;98794.31;;;28.16;42.12
58018;BME280;43810;50.860;19.226;2023-08-24T11:05:05;98777.94;;;28.03;40.08
58018;BME280;43810;50.860;19.226;2023-08-24T11:07:31;98775.78;;;27.60;43.10
58018;BME280;43810;50.860;19.226;2023-08-24T11:09:57;98769.78;;;27.40;43.85
58018;BME280;43810;50.860;19.226;2023-08-24T11:12:22;98770.75;;;27.46;43.16
58018;BME280;43810;50.860;19.226;2023-08-24T11:14:49;98768.13;;;27.43;42.91
58018;BME280;43810;50.860;19.226;2023-08-24T11:17:24;98763.13;;;27.41;43.51
58018;BME280;43810;50.860;19.226;2023-08-24T11:19:55;98767.69;;;27.19;43.25
58018;BME280;43810;50.860;19.226;2023-08-24T11:22:21;98761.97;;;27.01;45.58
58018;BME280;43810;50.860;19.226;2023-08-24T11:24:47;98756.19;;;27.11;45.09
58018;BME280;43810;50.860;19.226;2023-08-24T11:27:12;98760.44;;;27.12;45.00
58018;BME280;43810;50.860;19.226;2023-08-24T11:29:38;98749.66;;;27.21;42.45
58018;BME280;43810;50.860;19.226;2023-08-24T11:32:04;98752.38;;;27.21;44.11
58018;BME280;43810;50.860;19.226;2023-08-24T11:34:33;98748.72;;;27.28;44.27
58018;BME280;43810;50.860;19.226;2023-08-24T11:36:59;98745.25;;;27.40;46.16
58018;BME280;43810;50.860;19.226;2023-08-24T11:39:26;98746.09;;;27.62;43.45
58018;BME280;43810;50.860;19.226;2023-08-24T11:42:03;98740.97;;;27.64;41.62
58018;BME280;43810;50.860;19.226;2023-08-24T11:44:44;98743.38;;;27.50;43.24
58018;BME280;43810;50.860;19.226;2023-08-24T11:47:10;98744.56;;;27.61;44.66
58018;BME280;43810;50.860;19.226;2023-08-24T11:49:36;98738.50;;;27.92;45.31
58018;BME280;43810;50.860;19.226;2023-08-24T11:52:02;98736.78;;;28.54;41.34
58018;BME280;43810;50.860;19.226;2023-08-24T11:54:27;98732.31;;;29.13;39.54
58018;BME280;43810;50.860;19.226;2023-08-24T11:56:53;98742.28;;;29.29;39.69
58018;BME280;43810;50.860;19.226;2023-08-24T11:59:20;98740.53;;;29.53;38.89
58018;BME280;43810;50.860;19.226;2023-08-24T12:01:47;98735.28;;;29.77;40.15
58018;BME280;43810;50.860;19.226;2023-08-24T12:04:13;98742.06;;;30.03;39.41
58018;BME280;43810;50.860;19.226;2023-08-24T12:06:38;98742.09;;;30.49;38.41
58018;BME280;43810;50.860;19.226;2023-08-24T12:09:06;98729.41;;;30.33;36.73
58018;BME280;43810;50.860;19.226;2023-08-24T12:11:35;98722.00;;;30.52;37.41
58018;BME280;43810;50.860;19.226;2023-08-24T12:14:01;98737.31;;;30.77;37.34
58018;BME280;43810;50.860;19.226;2023-08-24T12:16:30;98721.97;;;30.61;36.81
58018;BME280;43810;50.860;19.226;2023-08-24T12:18:59;98725.19;;;30.50;36.11
58018;BME280;43810;50.860;19.226;2023-08-24T12:21:26;98731.84;;;30.22;38.72
58018;BME280;43810;50.860;19.226;2023-08-24T12:24:03;98716.78;;;30.27;38.45
58018;BME280;43810;50.860;19.226;2023-08-24T12:26:32;98701.88;;;30.28;37.92
58018;BME280;43810;50.860;19.226;2023-08-24T12:29:04;98705.81;;;30.63;37.77
58018;BME280;43810;50.860;19.226;2023-08-24T12:31:31;98711.41;;;31.29;37.24
58018;BME280;43810;50.860;19.226;2023-08-24T12:34:07;98706.47;;;31.75;36.98
58018;BME280;43810;50.860;19.226;2023-08-24T12:36:37;98692.34;;;32.06;35.28
58018;BME280;43810;50.860;19.226;2023-08-24T12:39:04;98694.53;;;32.02;34.75
58018;BME280;43810;50.860;19.226;2023-08-24T12:41:31;98689.75;;;31.88;35.65
58018;BME280;43810;50.860;19.226;2023-08-24T12:43:57;98695.41;;;31.84;35.69
58018;BME280;43810;50.860;19.226;2023-08-24T12:46:23;98691.34;;;31.56;36.28
58018;BME280;43810;50.860;19.226;2023-08-24T12:48:50;98697.25;;;31.31;35.77
58018;BME280;43810;50.860;19.226;2023-08-24T12:51:16;98697.44;;;31.18;37.18
58018;BME280;43810;50.860;19.226;2023-08-24T12:53:42;98690.97;;;30.97;36.45
58018;BME280;43810;50.860;19.226;2023-08-24T12:56:08;98693.59;;;30.73;35.76
58018;BME280;43810;50.860;19.226;2023-08-24T12:58:34;98688.47;;;30.30;37.22
58018;BME280;43810;50.860;19.226;2023-08-24T13:01:00;98691.06;;;30.06;36.91